sensor_id;sensor_type;location;lat;lon;timestamp;P1;durP1;ratioP1;P2;durP2;ratioP2
6973;SDS011;3527;52.376;8.990;2024-03-02T00:01:32;11.60;;;7.53;;
6973;SDS011;3527;52.376;8.990;2024-03-02T00:03:59;9.53;;;7.50;;
6973;SDS011;3527;52.376;8.990;2024-03-02T00:06:25;10.07;;;7.53;;
6973;SDS011;3527;52.376;8.990;2024-03-02T00:08:55;11.37;;;8.03;;
6973;SDS011;3527;52.376;8.990;2024-03-02T00:11:22;12.87;;;8.33;;
6973;SDS011;3527;52.376;8.990;2024-03-02T00:13:52;11.23;;;7.93;;
6973;SDS011;3527;52.376;8.990;2024-03-02T00:16:18;10.53;;;7.90;;
6973;SDS011;3527;52.376;8.990;2024-03-02T00:18:46;11.07;;;8.00;;
6973;SDS011;3527;52.376;8.990;2024-03-02T00:21:13;11.23;;;8.00;;
6973;SDS011;3527;52.376;8.990;2024-03-02T00:23:41;12.07;;;8.13;;
6973;SDS011;3527;52.376;8.990;2024-03-02T00:26:08;13.03;;;9.40;;
6973;SDS011;3527;52.376;8.990;2024-03-02T00:28:38;11.40;;;8.17;;
6973;SDS011;3527;52.376;8.990;2024-03-02T00:31:06;11.83;;;7.80;;
6973;SDS011;3527;52.376;8.990;2024-03-02T00:33:46;12.37;;;8.93;;
6973;SDS011;3527;52.376;8.990;2024-03-02T00:36:21;12.53;;;8.40;;
6973;SDS011;3527;52.376;8.990;2024-03-02T00:38:49;13.17;;;9.03;;
6973;SDS011;3527;52.376;8.990;2024-03-02T00:41:21;11.87;;;8.00;;
6973;SDS011;3527;52.376;8.990;2024-03-02T00:46:16;12.63;;;8.33;;
6973;SDS011;3527;52.376;8.990;2024-03-02T00:51:13;12.33;;;8.80;;
6973;SDS011;3527;52.376;8.990;2024-03-02T00:53:40;12.40;;;8.43;;
6973;SDS011;3527;52.376;8.990;2024-03-02T00:56:09;12.73;;;9.17;;
6973;SDS011;3527;52.376;8.990;2024-03-02T00:58:35;13.67;;;9.93;;
6973;SDS011;3527;52.376;8.990;2024-03-02T01:01:02;12.93;;;9.60;;
6973;SDS011;3527;52.376;8.990;2024-03-02T01:03:29;12.50;;;9.20;;
6973;SDS011;3527;52.376;8.990;2024-03-02T01:05:57;16.43;;;10.97;;
6973;SDS011;3527;52.376;8.990;2024-03-02T01:08:24;14.57;;;10.07;;
6973;SDS011;3527;52.376;8.990;2024-03-02T01:10:51;14.27;;;9.90;;
6973;SDS011;3527;52.376;8.990;2024-03-02T01:13:18;14.60;;;10.60;;
6973;SDS011;3527;52.376;8.990;2024-03-02T01:15:45;18.37;;;11.70;;
6973;SDS011;3527;52.376;8.990;2024-03-02T01:18:12;15.40;;;10.43;;
6973;SDS011;3527;52.376;8.990;2024-03-02T01:20:38;13.33;;;9.73;;
6973;SDS011;3527;52.376;8.990;2024-03-02T01:23:05;16.57;;;11.70;;
6973;SDS011;3527;52.376;8.990;2024-03-02T01:25:31;18.63;;;11.37;;
6973;SDS011;3527;52.376;8.990;2024-03-02T01:27:58;16.73;;;11.60;;
6973;SDS011;3527;52.376;8.990;2024-03-02T01:30:25;18.47;;;11.83;;
6973;SDS011;3527;52.376;8.990;2024-03-02T01:32:52;18.20;;;11.40;;
6973;SDS011;3527;52.376;8.990;2024-03-02T01:35:18;17.57;;;12.23;;
6973;SDS011;3527;52.376;8.990;2024-03-02T01:37:45;16.97;;;11.93;;
6973;SDS011;3527;52.376;8.990;2024-03-02T01:40:12;19.30;;;12.60;;
6973;SDS011;3527;52.376;8.990;2024-03-02T01:42:38;17.70;;;12.37;;
6973;SDS011;3527;52.376;8.990;2024-03-02T01:45:06;17.80;;;12.57;;
6973;SDS011;3527;52.376;8.990;2024-03-02T01:47:33;14.73;;;10.93;;
6973;SDS011;3527;52.376;8.990;2024-03-02T01:49:59;16.47;;;11.43;;
6973;SDS011;3527;52.376;8.990;2024-03-02T01:52:26;18.07;;;12.13;;
6973;SDS011;3527;52.376;8.990;2024-03-02T01:54:53;17.73;;;11.63;;
6973;SDS011;3527;52.376;8.990;2024-03-02T01:57:20;19.27;;;12.37;;
6973;SDS011;3527;52.376;8.990;2024-03-02T01:59:46;21.60;;;12.50;;
6973;SDS011;3527;52.376;8.990;2024-03-02T02:02:17;19.30;;;12.50;;
6973;SDS011;3527;52.376;8.990;2024-03-02T02:04:44;18.50;;;11.33;;
6973;SDS011;3527;52.376;8.990;2024-03-02T02:07:11;20.43;;;12.23;;
6973;SDS011;3527;52.376;8.990;2024-03-02T02:09:37;18.47;;;11.97;;
6973;SDS011;3527;52.376;8.990;2024-03-02T02:12:04;17.83;;;11.90;;
6973;SDS011;3527;52.376;8.990;2024-03-02T02:14:33;18.20;;;11.73;;
6973;SDS011;3527;52.376;8.990;2024-03-02T02:17:00;16.83;;;11.87;;
6973;SDS011;3527;52.376;8.990;2024-03-02T02:19:26;16.73;;;10.43;;
6973;SDS011;3527;52.376;8.990;2024-03-02T02:21:53;21.83;;;11.70;;
6973;SDS011;3527;52.376;8.990;2024-03-02T02:24:20;17.83;;;11.73;;
6973;SDS011;3527;52.376;8.990;2024-03-02T02:26:47;16.00;;;10.70;;
6973;SDS011;3527;52.376;8.990;2024-03-02T02:29:13;17.47;;;11.27;;
6973;SDS011;3527;52.376;8.990;2024-03-02T02:31:41;15.27;;;9.90;;
6973;SDS011;3527;52.376;8.990;2024-03-02T02:34:07;14.63;;;10.30;;
6973;SDS011;3527;52.376;8.990;2024-03-02T02:36:37;14.03;;;10.53;;
6973;SDS011;3527;52.376;8.990;2024-03-02T02:39:05;15.97;;;10.40;;
6973;SDS011;3527;52.376;8.990;2024-03-02T02:41:33;15.60;;;10.10;;
6973;SDS011;3527;52.376;8.990;2024-03-02T02:43:59;15.93;;;10.57;;
6973;SDS011;3527;52.376;8.990;2024-03-02T02:46:26;18.03;;;11.20;;
6973;SDS011;3527;52.376;8.990;2024-03-02T02:48:53;17.07;;;11.80;;
6973;SDS011;3527;52.376;8.990;2024-03-02T02:51:20;14.80;;;10.37;;
6973;SDS011;3527;52.376;8.990;2024-03-02T02:53:47;14.77;;;10.43;;
6973;SDS011;3527;52.376;8.990;2024-03-02T02:56:13;18.47;;;11.37;;
6973;SDS011;3527;52.376;8.990;2024-03-02T02:58:40;17.77;;;11.30;;
6973;SDS011;3527;52.376;8.990;2024-03-02T03:01:08;15.23;;;11.17;;
6973;SDS011;3527;52.376;8.990;2024-03-02T03:03:34;17.27;;;11.53;;
6973;SDS011;3527;52.376;8.990;2024-03-02T03:06:01;16.30;;;11.10;;
6973;SDS011;3527;52.376;8.990;2024-03-02T03:08:28;15.37;;;10.57;;
6973;SDS011;3527;52.376;8.990;2024-03-02T03:10:55;15.67;;;10.50;;
6973;SDS011;3527;52.376;8.990;2024-03-02T03:13:22;16.60;;;10.63;;
6973;SDS011;3527;52.376;8.990;2024-03-02T03:15:49;15.43;;;10.03;;
6973;SDS011;3527;52.376;8.990;2024-03-02T03:18:16;16.57;;;9.97;;
6973;SDS011;3527;52.376;8.990;2024-03-02T03:20:43;14.07;;;10.07;;
6973;SDS011;3527;52.376;8.990;2024-03-02T03:23:10;17.53;;;10.97;;
6973;SDS011;3527;52.376;8.990;2024-03-02T03:25:41;17.57;;;10.93;;
6973;SDS011;3527;52.376;8.990;2024-03-02T03:28:08;15.73;;;11.13;;
6973;SDS011;3527;52.376;8.990;2024-03-02T03:30:38;15.80;;;10.47;;
6973;SDS011;3527;52.376;8.990;2024-03-02T03:33:05;15.73;;;10.37;;
6973;SDS011;3527;52.376;8.990;2024-03-02T03:35:35;13.27;;;9.70;;
6973;SDS011;3527;52.376;8.990;2024-03-02T03:38:02;17.17;;;11.40;;
6973;SDS011;3527;52.376;8.990;2024-03-02T03:40:29;14.37;;;10.50;;
6973;SDS011;3527;52.376;8.990;2024-03-02T03:42:56;16.27;;;11.03;;
6973;SDS011;3527;52.376;8.990;2024-03-02T03:45:23;16.60;;;10.97;;
6973;SDS011;3527;52.376;8.990;2024-03-02T03:47:53;14.93;;;10.20;;
6973;SDS011;3527;52.376;8.990;2024-03-02T03:50:19;15.73;;;10.63;;
6973;SDS011;3527;52.376;8.990;2024-03-02T03:52:46;15.83;;;10.57;;
6973;SDS011;3527;52.376;8.990;2024-03-02T03:55:13;19.33;;;11.30;;
6973;SDS011;3527;52.376;8.990;2024-03-02T03:57:40;15.90;;;10.57;;
6973;SDS011;3527;52.376;8.990;2024-03-02T04:00:07;16.23;;;10.57;;
6973;SDS011;3527;52.376;8.990;2024-03-02T04:02:36;16.67;;;11.10;;
6973;SDS011;3527;52.376;8.990;2024-03-02T04:05:03;16.00;;;10.67;;
6973;SDS011;3527;52.376;8.990;2024-03-02T04:07:35;16.93;;;11.93;;
6973;SDS011;3527;52.376;8.990;2024-03-02T04:10:07;23.17;;;13.33;;
6973;SDS011;3527;52.376;8.990;2024-03-02T04:12:35;18.70;;;12.73;;
6973;SDS011;3527;52.376;8.990;2024-03-02T04:15:23;20.93;;;13.37;;
6973;SDS011;3527;52.376;8.990;2024-03-02T04:17:54;17.83;;;12.33;;
6973;SDS011;3527;52.376;8.990;2024-03-02T04:20:41;22.80;;;14.40;;
6973;SDS011;3527;52.376;8.990;2024-03-02T04:23:28;22.37;;;14.03;;
6973;SDS011;3527;52.376;8.990;2024-03-02T04:25:58;22.77;;;14.43;;
6973;SDS011;3527;52.376;8.990;2024-03-02T04:28:29;21.57;;;13.63;;
6973;SDS011;3527;52.376;8.990;2024-03-02T04:31:16;22.73;;;15.03;;
6973;SDS011;3527;52.376;8.990;2024-03-02T04:34:03;21.80;;;13.77;;
6973;SDS011;3527;52.376;8.990;2024-03-02T04:36:42;25.27;;;16.17;;
6973;SDS011;3527;52.376;8.990;2024-03-02T04:39:29;25.00;;;16.17;;
6973;SDS011;3527;52.376;8.990;2024-03-02T04:42:01;23.00;;;15.23;;
6973;SDS011;3527;52.376;8.990;2024-03-02T04:44:49;23.33;;;14.90;;
6973;SDS011;3527;52.376;8.990;2024-03-02T04:47:30;24.33;;;15.67;;
6973;SDS011;3527;52.376;8.990;2024-03-02T04:50:17;23.60;;;15.37;;
6973;SDS011;3527;52.376;8.990;2024-03-02T04:52:44;27.10;;;17.10;;
6973;SDS011;3527;52.376;8.990;2024-03-02T04:55:11;25.00;;;15.53;;
6973;SDS011;3527;52.376;8.990;2024-03-02T04:58:00;23.67;;;15.53;;
6973;SDS011;3527;52.376;8.990;2024-03-02T05:00:27;26.77;;;15.50;;
6973;SDS011;3527;52.376;8.990;2024-03-02T05:02:53;23.60;;;15.87;;
6973;SDS011;3527;52.376;8.990;2024-03-02T05:05:20;26.93;;;16.83;;
6973;SDS011;3527;52.376;8.990;2024-03-02T05:07:47;28.00;;;16.77;;
6973;SDS011;3527;52.376;8.990;2024-03-02T05:10:13;24.10;;;16.10;;
6973;SDS011;3527;52.376;8.990;2024-03-02T05:12:41;26.93;;;16.53;;
6973;SDS011;3527;52.376;8.990;2024-03-02T05:15:11;27.93;;;16.83;;
6973;SDS011;3527;52.376;8.990;2024-03-02T05:17:39;26.07;;;16.20;;
6973;SDS011;3527;52.376;8.990;2024-03-02T05:20:06;28.03;;;17.80;;
6973;SDS011;3527;52.376;8.990;2024-03-02T05:22:34;31.97;;;18.10;;
6973;SDS011;3527;52.376;8.990;2024-03-02T05:25:01;33.13;;;18.80;;
6973;SDS011;3527;52.376;8.990;2024-03-02T05:27:28;36.40;;;20.00;;
6973;SDS011;3527;52.376;8.990;2024-03-02T05:29:55;29.57;;;18.10;;
6973;SDS011;3527;52.376;8.990;2024-03-02T05:32:22;32.70;;;18.87;;
6973;SDS011;3527;52.376;8.990;2024-03-02T05:34:48;30.93;;;17.90;;
6973;SDS011;3527;52.376;8.990;2024-03-02T05:37:17;28.30;;;18.97;;
6973;SDS011;3527;52.376;8.990;2024-03-02T05:39:44;29.43;;;17.87;;
6973;SDS011;3527;52.376;8.990;2024-03-02T05:42:11;31.10;;;17.83;;
6973;SDS011;3527;52.376;8.990;2024-03-02T05:44:38;32.43;;;19.23;;
6973;SDS011;3527;52.376;8.990;2024-03-02T05:47:04;33.97;;;18.33;;
6973;SDS011;3527;52.376;8.990;2024-03-02T05:49:31;32.53;;;18.87;;
6973;SDS011;3527;52.376;8.990;2024-03-02T05:51:58;32.43;;;19.10;;
6973;SDS011;3527;52.376;8.990;2024-03-02T05:54:25;31.80;;;18.30;;
6973;SDS011;3527;52.376;8.990;2024-03-02T05:56:51;31.60;;;18.73;;
6973;SDS011;3527;52.376;8.990;2024-03-02T05:59:18;30.90;;;18.07;;
6973;SDS011;3527;52.376;8.990;2024-03-02T06:01:45;33.30;;;18.87;;
6973;SDS011;3527;52.376;8.990;2024-03-02T06:04:18;30.77;;;17.53;;
6973;SDS011;3527;52.376;8.990;2024-03-02T06:06:45;31.67;;;18.90;;
6973;SDS011;3527;52.376;8.990;2024-03-02T06:09:12;31.00;;;18.47;;
6973;SDS011;3527;52.376;8.990;2024-03-02T06:11:39;31.27;;;19.63;;
6973;SDS011;3527;52.376;8.990;2024-03-02T06:14:07;32.23;;;19.33;;
6973;SDS011;3527;52.376;8.990;2024-03-02T06:16:34;32.13;;;18.23;;
6973;SDS011;3527;52.376;8.990;2024-03-02T06:19:01;30.60;;;18.23;;
6973;SDS011;3527;52.376;8.990;2024-03-02T06:21:28;34.23;;;21.23;;
6973;SDS011;3527;52.376;8.990;2024-03-02T06:23:54;36.33;;;20.03;;
6973;SDS011;3527;52.376;8.990;2024-03-02T06:26:21;30.60;;;18.57;;
6973;SDS011;3527;52.376;8.990;2024-03-02T06:28:51;29.50;;;18.27;;
6973;SDS011;3527;52.376;8.990;2024-03-02T06:31:18;31.10;;;19.37;;
6973;SDS011;3527;52.376;8.990;2024-03-02T06:33:45;33.80;;;19.37;;
6973;SDS011;3527;52.376;8.990;2024-03-02T06:36:12;36.50;;;20.77;;
6973;SDS011;3527;52.376;8.990;2024-03-02T06:38:39;37.27;;;19.70;;
6973;SDS011;3527;52.376;8.990;2024-03-02T06:41:09;36.73;;;21.17;;
6973;SDS011;3527;52.376;8.990;2024-03-02T06:43:36;38.30;;;21.07;;
6973;SDS011;3527;52.376;8.990;2024-03-02T06:46:02;38.83;;;21.33;;
6973;SDS011;3527;52.376;8.990;2024-03-02T06:48:29;35.13;;;19.97;;
6973;SDS011;3527;52.376;8.990;2024-03-02T06:50:56;35.17;;;20.00;;
6973;SDS011;3527;52.376;8.990;2024-03-02T06:53:24;31.47;;;19.27;;
6973;SDS011;3527;52.376;8.990;2024-03-02T06:55:51;35.63;;;19.57;;
6973;SDS011;3527;52.376;8.990;2024-03-02T06:58:18;34.73;;;19.30;;
6973;SDS011;3527;52.376;8.990;2024-03-02T07:00:45;32.47;;;20.03;;
6973;SDS011;3527;52.376;8.990;2024-03-02T07:03:11;29.17;;;17.20;;
6973;SDS011;3527;52.376;8.990;2024-03-02T07:05:39;30.37;;;19.10;;
6973;SDS011;3527;52.376;8.990;2024-03-02T07:08:05;28.13;;;17.37;;
6973;SDS011;3527;52.376;8.990;2024-03-02T07:10:32;28.03;;;17.97;;
6973;SDS011;3527;52.376;8.990;2024-03-02T07:12:59;27.60;;;16.87;;
6973;SDS011;3527;52.376;8.990;2024-03-02T07:15:26;26.50;;;16.10;;
6973;SDS011;3527;52.376;8.990;2024-03-02T07:17:53;29.40;;;16.40;;
6973;SDS011;3527;52.376;8.990;2024-03-02T07:20:20;29.47;;;17.80;;
6973;SDS011;3527;52.376;8.990;2024-03-02T07:22:46;26.20;;;15.03;;
6973;SDS011;3527;52.376;8.990;2024-03-02T07:25:13;27.67;;;15.23;;
6973;SDS011;3527;52.376;8.990;2024-03-02T07:27:43;28.17;;;15.80;;
6973;SDS011;3527;52.376;8.990;2024-03-02T07:30:13;24.40;;;15.83;;
6973;SDS011;3527;52.376;8.990;2024-03-02T07:32:40;24.17;;;15.40;;
6973;SDS011;3527;52.376;8.990;2024-03-02T07:35:08;22.90;;;15.33;;
6973;SDS011;3527;52.376;8.990;2024-03-02T07:37:34;22.77;;;13.97;;
6973;SDS011;3527;52.376;8.990;2024-03-02T07:40:01;24.63;;;14.47;;
6973;SDS011;3527;52.376;8.990;2024-03-02T07:42:29;23.73;;;14.47;;
6973;SDS011;3527;52.376;8.990;2024-03-02T07:44:56;23.70;;;14.73;;
6973;SDS011;3527;52.376;8.990;2024-03-02T07:47:23;22.27;;;14.83;;
6973;SDS011;3527;52.376;8.990;2024-03-02T07:49:49;22.83;;;15.27;;
6973;SDS011;3527;52.376;8.990;2024-03-02T07:52:16;21.33;;;13.97;;
6973;SDS011;3527;52.376;8.990;2024-03-02T07:54:43;22.00;;;13.90;;
6973;SDS011;3527;52.376;8.990;2024-03-02T07:57:10;23.60;;;14.13;;
6973;SDS011;3527;52.376;8.990;2024-03-02T07:59:37;20.10;;;13.27;;
6973;SDS011;3527;52.376;8.990;2024-03-02T08:02:03;22.57;;;14.37;;
6973;SDS011;3527;52.376;8.990;2024-03-02T08:04:30;21.70;;;13.43;;
6973;SDS011;3527;52.376;8.990;2024-03-02T08:06:57;21.67;;;13.67;;
6973;SDS011;3527;52.376;8.990;2024-03-02T08:09:24;19.73;;;13.13;;
6973;SDS011;3527;52.376;8.990;2024-03-02T08:11:51;22.07;;;14.30;;
6973;SDS011;3527;52.376;8.990;2024-03-02T08:14:17;21.03;;;14.30;;
6973;SDS011;3527;52.376;8.990;2024-03-02T08:16:44;19.87;;;13.13;;
6973;SDS011;3527;52.376;8.990;2024-03-02T08:19:11;22.10;;;13.97;;
6973;SDS011;3527;52.376;8.990;2024-03-02T08:21:38;22.47;;;13.50;;
6973;SDS011;3527;52.376;8.990;2024-03-02T08:24:05;23.57;;;14.43;;
6973;SDS011;3527;52.376;8.990;2024-03-02T08:26:32;18.13;;;12.63;;
6973;SDS011;3527;52.376;8.990;2024-03-02T08:28:59;19.73;;;13.23;;
6973;SDS011;3527;52.376;8.990;2024-03-02T08:31:28;18.87;;;12.70;;
6973;SDS011;3527;52.376;8.990;2024-03-02T08:33:54;19.07;;;13.43;;
6973;SDS011;3527;52.376;8.990;2024-03-02T08:36:22;19.87;;;13.07;;
6973;SDS011;3527;52.376;8.990;2024-03-02T08:38:49;22.67;;;14.37;;
6973;SDS011;3527;52.376;8.990;2024-03-02T08:41:16;21.80;;;13.43;;
6973;SDS011;3527;52.376;8.990;2024-03-02T08:43:43;18.93;;;12.40;;
6973;SDS011;3527;52.376;8.990;2024-03-02T08:46:09;20.33;;;13.30;;
6973;SDS011;3527;52.376;8.990;2024-03-02T08:48:38;17.37;;;11.73;;
6973;SDS011;3527;52.376;8.990;2024-03-02T08:51:05;19.23;;;12.60;;
6973;SDS011;3527;52.376;8.990;2024-03-02T08:53:34;18.83;;;12.67;;
6973;SDS011;3527;52.376;8.990;2024-03-02T08:56:01;19.00;;;11.93;;
6973;SDS011;3527;52.376;8.990;2024-03-02T08:58:28;17.43;;;11.00;;
6973;SDS011;3527;52.376;8.990;2024-03-02T09:00:55;16.53;;;11.47;;
6973;SDS011;3527;52.376;8.990;2024-03-02T09:03:22;16.77;;;11.33;;
6973;SDS011;3527;52.376;8.990;2024-03-02T09:05:49;18.50;;;11.80;;
6973;SDS011;3527;52.376;8.990;2024-03-02T09:08:15;15.60;;;10.63;;
6973;SDS011;3527;52.376;8.990;2024-03-02T09:10:42;17.47;;;11.43;;
6973;SDS011;3527;52.376;8.990;2024-03-02T09:13:10;17.00;;;10.37;;
6973;SDS011;3527;52.376;8.990;2024-03-02T09:15:36;16.57;;;10.33;;
6973;SDS011;3527;52.376;8.990;2024-03-02T09:18:06;17.63;;;10.27;;
6973;SDS011;3527;52.376;8.990;2024-03-02T09:20:33;15.17;;;10.33;;
6973;SDS011;3527;52.376;8.990;2024-03-02T09:23:01;14.70;;;9.97;;
6973;SDS011;3527;52.376;8.990;2024-03-02T09:25:27;14.07;;;9.33;;
6973;SDS011;3527;52.376;8.990;2024-03-02T09:27:54;15.97;;;9.73;;
6973;SDS011;3527;52.376;8.990;2024-03-02T09:30:21;13.27;;;9.00;;
6973;SDS011;3527;52.376;8.990;2024-03-02T09:32:47;15.17;;;9.70;;
6973;SDS011;3527;52.376;8.990;2024-03-02T09:35:16;13.97;;;9.50;;
6973;SDS011;3527;52.376;8.990;2024-03-02T09:37:42;15.03;;;10.07;;
6973;SDS011;3527;52.376;8.990;2024-03-02T09:40:09;19.07;;;10.53;;
6973;SDS011;3527;52.376;8.990;2024-03-02T09:42:36;14.93;;;9.97;;
6973;SDS011;3527;52.376;8.990;2024-03-02T09:45:03;14.17;;;9.07;;
6973;SDS011;3527;52.376;8.990;2024-03-02T09:47:30;14.13;;;9.73;;
6973;SDS011;3527;52.376;8.990;2024-03-02T09:49:57;14.00;;;9.93;;
6973;SDS011;3527;52.376;8.990;2024-03-02T09:52:24;14.83;;;9.20;;
6973;SDS011;3527;52.376;8.990;2024-03-02T09:54:50;12.33;;;9.13;;
6973;SDS011;3527;52.376;8.990;2024-03-02T09:57:17;14.93;;;9.80;;
6973;SDS011;3527;52.376;8.990;2024-03-02T09:59:44;13.23;;;9.40;;
6973;SDS011;3527;52.376;8.990;2024-03-02T10:02:12;13.47;;;8.67;;
6973;SDS011;3527;52.376;8.990;2024-03-02T10:04:38;12.23;;;8.97;;
6973;SDS011;3527;52.376;8.990;2024-03-02T10:09:35;11.97;;;8.60;;
6973;SDS011;3527;52.376;8.990;2024-03-02T10:12:05;12.10;;;8.43;;
6973;SDS011;3527;52.376;8.990;2024-03-02T10:14:32;12.33;;;8.60;;
6973;SDS011;3527;52.376;8.990;2024-03-02T10:17:02;13.20;;;9.07;;
6973;SDS011;3527;52.376;8.990;2024-03-02T10:19:30;12.17;;;8.20;;
6973;SDS011;3527;52.376;8.990;2024-03-02T10:21:59;13.60;;;8.87;;
6973;SDS011;3527;52.376;8.990;2024-03-02T10:24:36;11.03;;;7.90;;
6973;SDS011;3527;52.376;8.990;2024-03-02T10:27:10;13.03;;;8.27;;
6973;SDS011;3527;52.376;8.990;2024-03-02T10:29:37;12.00;;;7.97;;
6973;SDS011;3527;52.376;8.990;2024-03-02T10:32:08;11.40;;;7.80;;
6973;SDS011;3527;52.376;8.990;2024-03-02T10:34:35;10.57;;;7.40;;
6973;SDS011;3527;52.376;8.990;2024-03-02T10:37:02;10.60;;;7.40;;
6973;SDS011;3527;52.376;8.990;2024-03-02T10:39:31;13.03;;;7.03;;
6973;SDS011;3527;52.376;8.990;2024-03-02T10:41:59;14.23;;;8.33;;
6973;SDS011;3527;52.376;8.990;2024-03-02T10:44:26;11.80;;;7.43;;
6973;SDS011;3527;52.376;8.990;2024-03-02T10:46:53;12.10;;;7.57;;
6973;SDS011;3527;52.376;8.990;2024-03-02T10:49:20;10.20;;;7.10;;
6973;SDS011;3527;52.376;8.990;2024-03-02T10:51:48;9.07;;;6.70;;
6973;SDS011;3527;52.376;8.990;2024-03-02T10:54:15;9.33;;;6.93;;
6973;SDS011;3527;52.376;8.990;2024-03-02T10:56:42;9.63;;;6.73;;
6973;SDS011;3527;52.376;8.990;2024-03-02T10:59:33;9.30;;;6.37;;
6973;SDS011;3527;52.376;8.990;2024-03-02T11:01:58;11.03;;;8.03;;
6973;SDS011;3527;52.376;8.990;2024-03-02T11:04:30;10.10;;;6.60;;
6973;SDS011;3527;52.376;8.990;2024-03-02T11:07:07;10.87;;;7.30;;
6973;SDS011;3527;52.376;8.990;2024-03-02T11:09:35;12.80;;;7.43;;
6973;SDS011;3527;52.376;8.990;2024-03-02T11:12:03;9.03;;;6.77;;
6973;SDS011;3527;52.376;8.990;2024-03-02T11:14:31;8.30;;;6.27;;
6973;SDS011;3527;52.376;8.990;2024-03-02T11:17:01;9.70;;;6.63;;
6973;SDS011;3527;52.376;8.990;2024-03-02T11:19:30;9.50;;;5.57;;
6973;SDS011;3527;52.376;8.990;2024-03-02T11:21:57;8.70;;;6.07;;
6973;SDS011;3527;52.376;8.990;2024-03-02T11:26:51;8.70;;;5.53;;
6973;SDS011;3527;52.376;8.990;2024-03-02T11:32:03;9.33;;;6.20;;
6973;SDS011;3527;52.376;8.990;2024-03-02T11:34:31;9.33;;;6.37;;
6973;SDS011;3527;52.376;8.990;2024-03-02T11:36:58;9.03;;;6.17;;
6973;SDS011;3527;52.376;8.990;2024-03-02T11:39:28;8.97;;;5.90;;
6973;SDS011;3527;52.376;8.990;2024-03-02T11:41:55;8.43;;;5.80;;
6973;SDS011;3527;52.376;8.990;2024-03-02T11:44:22;8.03;;;5.53;;
6973;SDS011;3527;52.376;8.990;2024-03-02T11:46:58;8.23;;;6.10;;
6973;SDS011;3527;52.376;8.990;2024-03-02T11:49:38;7.13;;;6.00;;
6973;SDS011;3527;52.376;8.990;2024-03-02T11:52:05;7.73;;;5.37;;
6973;SDS011;3527;52.376;8.990;2024-03-02T11:54:39;8.70;;;6.10;;
6973;SDS011;3527;52.376;8.990;2024-03-02T11:57:06;8.20;;;5.60;;
6973;SDS011;3527;52.376;8.990;2024-03-02T11:59:33;9.63;;;6.43;;
6973;SDS011;3527;52.376;8.990;2024-03-02T12:02:00;8.47;;;6.13;;
6973;SDS011;3527;52.376;8.990;2024-03-02T12:04:27;7.70;;;5.70;;
6973;SDS011;3527;52.376;8.990;2024-03-02T12:09:27;8.20;;;5.87;;
6973;SDS011;3527;52.376;8.990;2024-03-02T12:12:09;7.10;;;5.70;;
6973;SDS011;3527;52.376;8.990;2024-03-02T12:14:36;7.30;;;5.63;;
6973;SDS011;3527;52.376;8.990;2024-03-02T12:17:03;7.77;;;5.37;;
6973;SDS011;3527;52.376;8.990;2024-03-02T12:19:31;8.50;;;5.30;;
6973;SDS011;3527;52.376;8.990;2024-03-02T12:21:58;6.90;;;4.63;;
6973;SDS011;3527;52.376;8.990;2024-03-02T12:24:29;6.90;;;5.03;;
6973;SDS011;3527;52.376;8.990;2024-03-02T12:26:56;8.30;;;5.03;;
6973;SDS011;3527;52.376;8.990;2024-03-02T12:29:23;7.53;;;5.20;;
6973;SDS011;3527;52.376;8.990;2024-03-02T12:31:51;8.07;;;4.80;;
6973;SDS011;3527;52.376;8.990;2024-03-02T12:34:18;7.70;;;4.53;;
6973;SDS011;3527;52.376;8.990;2024-03-02T12:36:46;7.50;;;4.67;;
6973;SDS011;3527;52.376;8.990;2024-03-02T12:39:19;7.47;;;4.70;;
6973;SDS011;3527;52.376;8.990;2024-03-02T12:41:46;6.03;;;4.33;;
6973;SDS011;3527;52.376;8.990;2024-03-02T12:44:13;4.80;;;3.60;;
6973;SDS011;3527;52.376;8.990;2024-03-02T12:46:39;5.73;;;3.63;;
6973;SDS011;3527;52.376;8.990;2024-03-02T12:49:07;5.73;;;3.93;;
6973;SDS011;3527;52.376;8.990;2024-03-02T12:51:35;7.77;;;4.23;;
6973;SDS011;3527;52.376;8.990;2024-03-02T12:54:02;5.97;;;3.70;;
6973;SDS011;3527;52.376;8.990;2024-03-02T12:56:30;5.57;;;3.93;;
6973;SDS011;3527;52.376;8.990;2024-03-02T12:58:56;8.33;;;4.50;;
6973;SDS011;3527;52.376;8.990;2024-03-02T13:01:24;6.10;;;4.60;;
6973;SDS011;3527;52.376;8.990;2024-03-02T13:03:52;6.20;;;4.20;;
6973;SDS011;3527;52.376;8.990;2024-03-02T13:06:19;5.37;;;4.43;;
6973;SDS011;3527;52.376;8.990;2024-03-02T13:08:46;5.80;;;4.40;;
6973;SDS011;3527;52.376;8.990;2024-03-02T13:11:14;5.83;;;4.20;;
6973;SDS011;3527;52.376;8.990;2024-03-02T13:13:42;5.53;;;3.93;;
6973;SDS011;3527;52.376;8.990;2024-03-02T13:16:09;5.70;;;4.13;;
6973;SDS011;3527;52.376;8.990;2024-03-02T13:18:38;6.70;;;4.37;;
6973;SDS011;3527;52.376;8.990;2024-03-02T13:21:05;4.67;;;3.97;;
6973;SDS011;3527;52.376;8.990;2024-03-02T13:23:31;5.83;;;3.97;;
6973;SDS011;3527;52.376;8.990;2024-03-02T13:25:58;4.77;;;3.83;;
6973;SDS011;3527;52.376;8.990;2024-03-02T13:28:25;5.37;;;3.80;;
6973;SDS011;3527;52.376;8.990;2024-03-02T13:30:52;5.63;;;3.93;;
6973;SDS011;3527;52.376;8.990;2024-03-02T13:33:19;4.97;;;3.57;;
6973;SDS011;3527;52.376;8.990;2024-03-02T13:35:51;5.63;;;4.10;;
6973;SDS011;3527;52.376;8.990;2024-03-02T13:38:19;5.20;;;3.40;;
6973;SDS011;3527;52.376;8.990;2024-03-02T13:40:47;5.63;;;3.70;;
6973;SDS011;3527;52.376;8.990;2024-03-02T13:43:17;5.57;;;3.63;;
6973;SDS011;3527;52.376;8.990;2024-03-02T13:45:45;5.57;;;3.60;;
6973;SDS011;3527;52.376;8.990;2024-03-02T13:48:12;5.53;;;3.50;;
6973;SDS011;3527;52.376;8.990;2024-03-02T13:50:41;5.33;;;3.60;;
6973;SDS011;3527;52.376;8.990;2024-03-02T13:53:07;5.13;;;3.77;;
6973;SDS011;3527;52.376;8.990;2024-03-02T13:55:35;5.10;;;3.70;;
6973;SDS011;3527;52.376;8.990;2024-03-02T13:58:02;5.23;;;3.40;;
6973;SDS011;3527;52.376;8.990;2024-03-02T14:00:29;5.33;;;3.97;;
6973;SDS011;3527;52.376;8.990;2024-03-02T14:02:56;4.87;;;3.43;;
6973;SDS011;3527;52.376;8.990;2024-03-02T14:05:22;6.00;;;3.30;;
6973;SDS011;3527;52.376;8.990;2024-03-02T14:07:49;6.90;;;3.77;;
6973;SDS011;3527;52.376;8.990;2024-03-02T14:10:16;4.87;;;3.50;;
6973;SDS011;3527;52.376;8.990;2024-03-02T14:12:44;4.27;;;3.23;;
6973;SDS011;3527;52.376;8.990;2024-03-02T14:15:11;5.43;;;3.30;;
6973;SDS011;3527;52.376;8.990;2024-03-02T14:17:38;4.87;;;3.23;;
6973;SDS011;3527;52.376;8.990;2024-03-02T14:20:05;4.30;;;2.90;;
6973;SDS011;3527;52.376;8.990;2024-03-02T14:22:33;4.17;;;2.73;;
6973;SDS011;3527;52.376;8.990;2024-03-02T14:25:00;4.63;;;2.97;;
6973;SDS011;3527;52.376;8.990;2024-03-02T14:27:27;4.00;;;2.73;;
6973;SDS011;3527;52.376;8.990;2024-03-02T14:30:14;3.40;;;2.80;;
6973;SDS011;3527;52.376;8.990;2024-03-02T14:32:40;3.17;;;2.53;;
6973;SDS011;3527;52.376;8.990;2024-03-02T14:35:07;3.30;;;2.50;;
6973;SDS011;3527;52.376;8.990;2024-03-02T14:37:37;3.90;;;2.80;;
6973;SDS011;3527;52.376;8.990;2024-03-02T14:40:03;6.13;;;2.83;;
6973;SDS011;3527;52.376;8.990;2024-03-02T14:42:33;3.60;;;2.90;;
6973;SDS011;3527;52.376;8.990;2024-03-02T14:45:00;3.50;;;2.50;;
6973;SDS011;3527;52.376;8.990;2024-03-02T14:47:26;4.27;;;2.70;;
6973;SDS011;3527;52.376;8.990;2024-03-02T14:49:53;3.20;;;2.43;;
6973;SDS011;3527;52.376;8.990;2024-03-02T14:52:20;3.90;;;2.63;;
6973;SDS011;3527;52.376;8.990;2024-03-02T14:54:47;3.43;;;2.50;;
6973;SDS011;3527;52.376;8.990;2024-03-02T14:57:13;3.17;;;2.07;;
6973;SDS011;3527;52.376;8.990;2024-03-02T14:59:40;3.03;;;2.10;;
6973;SDS011;3527;52.376;8.990;2024-03-02T15:02:08;3.17;;;2.07;;
6973;SDS011;3527;52.376;8.990;2024-03-02T15:04:35;3.67;;;2.20;;
6973;SDS011;3527;52.376;8.990;2024-03-02T15:07:01;3.03;;;1.93;;
6973;SDS011;3527;52.376;8.990;2024-03-02T15:09:29;2.70;;;2.00;;
6973;SDS011;3527;52.376;8.990;2024-03-02T15:11:56;3.60;;;1.70;;
6973;SDS011;3527;52.376;8.990;2024-03-02T15:14:23;2.93;;;1.97;;
6973;SDS011;3527;52.376;8.990;2024-03-02T15:16:49;3.30;;;1.67;;
6973;SDS011;3527;52.376;8.990;2024-03-02T15:19:16;5.50;;;1.90;;